Millville Municipal Airport Millville US
ICAO: KMIV
IATA: MIV
Category: Medium
Scheduled Services: No

Elevation: 85 ft
TransAlt. 18000 ft.

Airport Communications:
APP/DEP:124.6
ASOS:128.125
CTAF:123.65
RDO:123.65
UNICOM:123

KMIV Zoom In..

Runways:

(A) RW 10 length 6003 ft width 150 ft
ILS 110.90 / hdg 101

(B) RW 14 length 5058 ft width 150 ft
---- / hdg 146

(C) RW 28 length 6003 ft width 150 ft
---- / hdg 281

(D) RW 32 length 5058 ft width 150 ft
---- / hdg 326

Location; KMIV
Day. 21 / Time. 14.54 Zulu
* Altimeter: 30.20
* Temperature: 22° c. 71.6°f.
* Wind from: 040° Speed 05 kn.
Dewpoint: 13° c.
Visibility: 10 Statute Miles.
Clouds: Clear (automated report).

KMIV 211454Z AUTO 04005KT 10SM CLR 22/13 A3020 RMK AO2 SLP224 T02220128 50005


Wind From 040°
Speed 05 kn.

 
 
jpsmedia.com for Web Design SOUNDCLOUD worldairports.se 2018   terms of use